Smoke Signal, Arizona
Current Conditions -  °F | °C
As of 8:53 PM on Thursday 25 Dec 2014 (Local Time) from KRQE Reporting Station
Broken Clouds Broken Clouds  
Wind Chill: 22°   Ceiling: 5000
Heat Index: 22°   Visibility: 10mi
Dew Point: 17°   Wind: 0mph
Humidity: 82%   Direction: NA
Pressure: 29.68"   Gusts: NA
Location:  36.1012°N, 109.584°W
Report Text: KRQE 260353Z AUTO 00000KT 10SM BKN050 BKN070 M06/M08 A2968 RMK AO2 SLP037 T10561083 TSNO
Loading
Personal Weather Stations






























Interactive Weather Map New forecast layout! Learn more

10-Day Weather Forecast

Advertisements
Track Severe Weather on mobile